Cape Cod Natl Seashore, Massachusetts
Current Conditions -  °F | °C
As of 4:55 PM on Saturday 25 Oct 2014 (Local Time) from KPVC Reporting Station
Clear Clear  
Wind Chill: 61°   Ceiling: Unl
Heat Index: 61°   Visibility: 10mi
Dew Point:   Wind: 13mph
Humidity: 11%   Direction: 210°SSW
Pressure: 29.59"   Gusts: 18mph
Location:  41.97°N, 70.01°W
Report Text: KPVC 252055Z 21011G16KT 10SM CLR 16/M15 A2959 RMK AO1 57020
Loading
Personal Weather Stations






























Interactive Weather Map New forecast layout! Learn more

10-Day Weather Forecast

Advertisements
Track Severe Weather on mobile